NEODyS-2

Near Earth Objects - Dynamic Site
NEODyS ∴ Observatories ∴ Site 691 ∴ Obs & residuals
Contact »
691  ▹ 
OBSERVATIONS AND RESIDUALS

691-Steward Observatory, Kitt Peak-Spacewatch

Detections | Residuals | Detections & Residuals

[1-200] [201-400] [401-600] [601-800] [801-1000] [1001-1200] [1201-1400] [1401-1600] [1601-1800] [1801-2000] [2001-2200] [2201-2400] [2401-2600] [2601-2800] [2801-3000] [3001-3200] [3201-3400] [3401-3600] [3601-3800] [3801-4000] [4001-4200] [4201-4400] [4401-4600] [4601-4800] [4801-5000] [5001-5200] [5201-5400] [5401-5600] [5601-5800] [5801-6000] [6001-6200] [6201-6400] [6401-6600] [6601-6800] [6801-7000] [7001-7200] [7201-7400] [7401-7600] [7601-7800] [7801-8000] [8001-8200] [8201-8400] [8401-8600] [8601-8800] [8801-9000] [9001-9200] [9201-9400] [9401-9600] [9601-9800] [9801-10000] [10001-10200] [10201-10400] [10401-10600] [10601-10800] [10801-11000] [11001-11200] [11201-11400] [11401-11600] [11601-11800] [11801-12000] [12001-12200] [12201-12400] [12401-12600] [12601-12800] [12801-13000] [13001-13200] [13201-13400] [13401-13600] [13601-13800] [13801-14000] [14001-14200] [14201-14400] [14401-14600] [14601-14800] [14801-15000] [15001-15200] [15201-15400] [15401-15600] [15601-15800] [15801-16000] [16001-16200] [16201-16400] [16401-16600] [16601-16800] [16801-17000] [17001-17200] [17201-17400] [17401-17600] [17601-17800] [17801-18000] [18001-18200] [18201-18400] [18401-18600] [18601-18800] [18801-19000] [19001-19200] [19201-19400] [19401-19600] [19601-19800] [19801-20000] [20001-20200] [20201-20400] [20401-20600] [20601-20800] [20801-21000] [21001-21200] [21201-21400] [21401-21600] [21601-21800] [21801-22000] [22001-22200] [22201-22400] [22401-22600] [22601-22800] [22801-23000] [23001-23200] [23201-23400] [23401-23600] [23601-23800] [23801-24000] [24001-24200] [24201-24400] [24401-24600] [24601-24800] [24801-25000] [25001-25200] [25201-25400] [25401-25600] [25601-25800] [25801-26000] [26001-26200] [26201-26400] [26401-26600] [26601-26800] [26801-27000] [27001-27200] [27201-27400] [27401-27600] [27601-27800] [27801-28000] [28001-28200] [28201-28400] [28401-28600] [28601-28800] [28801-29000] [29001-29200] [29201-29400] [29401-29600] [29601-29800] [29801-30000] [30001-30200] [30201-30400] [30401-30600] [30601-30800] [30801-31000] [31001-31200] [31201-31400] [31401-31600] [31601-31800] [31801-32000] [32001-32200] [32201-32400] [32401-32600] [32601-32800] [32801-33000] [33001-33200] [33201-33400] [33401-33600] [33601-33800] [33801-34000] [34001-34200] [34201-34400] [34401-34600] [34601-34800] [34801-35000] [35001-35200] [35201-35400] [35401-35600] [35601-35800] [35801-36000] [36001-36200] [36201-36400] [36401-36600] [36601-36800] [36801-37000] [37001-37200] [37201-37400] [37401-37600] [37601-37800] [37801-38000] [38001-38200] [38201-38400] [38401-38600] [38601-38800] [38801-39000] [39001-39200] [39201-39400] [39401-39600] [39601-39800] [39801-40000] [40001-40200] [40201-40400] [40401-40600] [40601-40800] [40801-41000] [41001-41200] [41201-41400] [41401-41600] [41601-41800] [41801-42000] [42001-42200] [42201-42400] [42401-42600] [42601-42800] [42801-43000] [43001-43200] [43201-43400] [43401-43600] [43601-43800] [43801-44000] [44001-44200] [44201-44400] [44401-44600] [44601-44800] [44801-45000] [45001-45200] [45201-45400] [45401-45600] [45601-45800] [45801-46000] [46001-46200] [46201-46400] [46401-46600] [46601-46800] [46801-47000] [47001-47200] [47201-47400] [47401-47600] [47601-47800] [47801-48000] [48001-48200] [48201-48400] [48401-48600] [48601-48800] [48801-49000] [49001-49200] [49201-49400] [49401-49600] [49601-49800] [49801-50000] [50001-50200] [50201-50400] [50401-50600] [50601-50741]

Designation T Tech N Date Right Ascension Declination Apparent Magnitude Star Catalog Site code χ Used A Used M
yr-mo-day precision hr:min:sec precision rms F bias residual deg min sec precision rms F bias residual mag/col rms residual
2001QE96 O C H 2001-08-22.30704 1.000E-05 22:03:27.860 1.500E-01 0.600 F -0.029 0.024 -11° 15' 29.70" 1.000E-01 0.600 F 0.470 -0.428 21.2 V 0.70 0.18 d 691 0.72 Yes Yes
2001QF96 O C 2001-08-22.31601 1.000E-05 21:29:05.920 1.500E-01 0.735 F -0.114 -0.691 -00° 47' 00.90" 1.000E-01 0.735 F 0.535 0.274 20.3 V 0.70 0.26 d 691 1.03 Yes Yes
1998SU27 O C 2001-08-22.31749 1.000E-05 21:31:50.570 1.500E-01 0.600 F 0.175 -0.356 -00° 36' 32.30" 1.000E-01 0.600 F 0.461 -0.157 21.9 V 0.70 1.30 d 691 0.66 Yes Yes
2001QF96 O C 2001-08-22.32034 1.000E-05 21:29:06.390 1.500E-01 0.735 F -0.114 0.268 -00° 47' 09.20" 1.000E-01 0.735 F 0.535 0.231 20.6 V 0.70 0.56 d 691 0.49 Yes Yes
1998SU27 O C 2001-08-22.32180 1.000E-05 21:31:50.100 1.500E-01 0.600 F 0.175 -0.189 -00° 36' 32.70" 1.000E-01 0.600 F 0.461 0.003 21.7 V 0.70 1.10 d 691 0.32 Yes Yes
2001QF96 O C 2001-08-22.32437 1.000E-05 21:29:06.750 1.500E-01 0.735 F -0.114 -0.013 -00° 47' 16.90" 1.000E-01 0.735 F 0.535 0.218 20.6 V 0.70 0.56 d 691 0.30 Yes Yes
1998SU27 O C 2001-08-22.32582 1.000E-05 21:31:49.690 1.500E-01 0.600 F 0.175 0.391 -00° 36' 33.30" 1.000E-01 0.600 F 0.461 -0.075 21.8 V 0.70 1.20 d 691 0.68 Yes Yes
2001QF96 O C 2001-08-22.36876 1.000E-05 21:29:11.000 1.500E-01 0.735 F -0.114 -0.025 -00° 48' 42.30" 1.000E-01 0.735 F 0.535 -0.337 21.1 V 0.70 1.07 d 691 0.47 Yes Yes
2001QF96 O C 2001-08-22.37283 1.000E-05 21:29:11.390 1.500E-01 0.735 F -0.114 -0.160 -00° 48' 50.30" 1.000E-01 0.735 F 0.535 -0.543 21.0 V 0.70 0.97 d 691 0.78 Yes Yes
2001QF96 O C 2001-08-22.37681 1.000E-05 21:29:11.830 1.500E-01 0.735 F -0.114 0.561 -00° 48' 57.10" 1.000E-01 0.735 F 0.535 0.282 20.6 V 0.70 0.57 d 691 0.87 Yes Yes
2001QE96 O C H 2001-08-23.27910 1.000E-05 22:02:26.310 1.500E-01 0.600 F -0.029 0.754 -11° 43' 12.70" 1.000E-01 0.600 F 0.470 0.422 21.4 V 0.70 0.31 d 691 1.47 Yes Yes
2001QE96 O C H 2001-08-23.28706 1.000E-05 22:02:25.720 1.500E-01 0.600 F -0.029 0.746 -11° 43' 25.60" 1.000E-01 0.600 F 0.470 1.184 22.0 V 0.70 0.90 d 691 2.36 Yes Yes
2001QF96 O C 2001-08-23.29354 1.000E-05 21:31:15.070 1.500E-01 0.735 F -0.015 -0.120 -01° 19' 43.70" 1.000E-01 0.735 F 0.779 0.006 20.1 V 0.70 0.18 d 691 0.17 Yes Yes
2001QF96 O C 2001-08-23.29732 1.000E-05 21:31:15.470 1.500E-01 0.735 F -0.015 -0.087 -01° 19' 52.50" 1.000E-01 0.735 F 0.779 -0.813 20.0 V 0.70 0.08 d 691 1.13 Yes Yes
2001QF96 O C 2001-08-23.30120 1.000E-05 21:31:15.870 1.500E-01 0.735 F -0.015 -0.217 -01° 20' 00.00" 1.000E-01 0.735 F 0.779 -0.120 20.3 V 0.70 0.38 d 691 0.34 Yes Yes
2001QF96 O C 2001-08-23.30570 1.000E-05 21:31:16.350 1.500E-01 0.735 F -0.015 -0.137 -01° 20' 09.60" 1.000E-01 0.735 F 0.779 -0.215 20.3 V 0.70 0.38 d 691 0.35 Yes Yes
2001QF96 O C 2001-08-23.30940 1.000E-05 21:31:16.750 1.500E-01 0.735 F -0.015 0.000 -01° 20' 17.30" 1.000E-01 0.735 F 0.779 -0.097 20.2 V 0.70 0.28 d 691 0.13 Yes Yes
2001QF96 O C 2001-08-23.31432 1.000E-05 21:31:17.260 1.500E-01 0.735 F -0.015 -0.159 -01° 20' 27.80" 1.000E-01 0.735 F 0.779 -0.198 20.4 V 0.70 0.48 d 691 0.35 Yes Yes
1998UC50 O C 2001-08-23.46097 1.000E-05 00:04:15.540 1.500E-01 0.600 F -0.156 -0.011 +02° 24' 29.60" 1.000E-01 0.600 F 0.525 -0.310 22.0 V 0.70 0.83 d 691 0.52 Yes Yes
1998UC50 O C 2001-08-23.47801 1.000E-05 00:04:14.820 1.500E-01 0.600 F -0.156 0.144 +02° 24' 26.40" 1.000E-01 0.600 F 0.525 -0.482 21.7 V 0.70 0.53 d 691 0.84 Yes Yes
1998UC50 O C 2001-08-23.49212 1.000E-05 00:04:14.210 1.500E-01 0.600 F -0.156 0.055 +02° 24' 23.80" 1.000E-01 0.600 F 0.525 -0.572 21.8 V 0.70 0.63 d 691 0.96 Yes Yes
2001HW7 O C t 2001-08-24.15645 1.000E-05 18:03:40.150 1.500E-01 0.600 F 0.069 0.880 +04° 18' 50.20" 1.000E-01 0.600 F 0.225 -0.215 d 691 1.65 Yes No
2001HW7 O C t 2001-08-24.16025 1.000E-05 18:03:41.510 1.500E-01 0.600 F 0.069 0.750 +04° 18' 42.90" 1.000E-01 0.600 F 0.225 -0.484 d 691 1.63 Yes No
2001PJ O C t 2001-08-24.16738 1.000E-05 18:09:49.770 1.500E-01 0.600 F 0.245 -0.018 +19° 50' 59.80" 1.000E-01 0.600 F 0.429 0.122 d 691 0.22 Yes No
2001PJ O C t 2001-08-24.20131 1.000E-05 18:10:06.530 1.500E-01 0.600 F 0.245 1.426 +19° 51' 47.90" 1.000E-01 0.600 F 0.429 1.654 d 691 3.44 No No
2001QE96 O C H 2001-08-24.29017 1.000E-05 22:01:21.860 1.500E-01 0.600 F -0.037 0.687 -12° 12' 01.90" 1.000E-01 0.600 F 0.396 0.688 21.8 V 0.70 0.62 d 691 1.65 Yes Yes
2001QE96 O C H 2001-08-24.29465 1.000E-05 22:01:21.510 1.500E-01 0.600 F -0.037 0.417 -12° 12' 09.70" 1.000E-01 0.600 F 0.396 0.553 21.3 V 0.70 0.12 d 691 1.17 Yes Yes
2001QE96 O C H 2001-08-24.29878 1.000E-05 22:01:21.220 1.500E-01 0.600 F -0.037 0.648 -12° 12' 16.10" 1.000E-01 0.600 F 0.396 1.215 21.5 V 0.70 0.32 d 691 2.32 Yes Yes
2001QF96 O C 2001-08-24.30914 1.000E-05 21:33:42.810 1.500E-01 0.600 F 0.448 -0.075 -01° 57' 25.70" 1.000E-01 0.600 F 0.760 -0.156 20.4 V 0.70 0.61 d 691 0.30 Yes Yes
2001QF96 O C 2001-08-24.31298 1.000E-05 21:33:43.270 1.500E-01 0.600 F 0.448 -0.080 -01° 57' 34.60" 1.000E-01 0.600 F 0.760 -0.053 20.5 V 0.70 0.71 d 691 0.16 Yes Yes
2001QF96 O C 2001-08-24.31729 1.000E-05 21:33:43.800 1.500E-01 0.600 F 0.448 0.105 -01° 57' 44.60" 1.000E-01 0.600 F 0.760 0.054 20.5 V 0.70 0.71 d 691 0.20 Yes Yes
2001QM142 O C 2001-08-25.23112 1.000E-05 21:21:21.190 1.500E-01 0.600 F 0.071 0.122 -14° 21' 01.60" 1.000E-01 0.600 F 0.412 -0.467 20.5 V 0.70 0.09 d 691 0.82 Yes Yes
2001QM142 O C 2001-08-25.25410 1.000E-05 21:21:15.760 1.500E-01 0.600 F 0.071 0.064 -14° 21' 56.70" 1.000E-01 0.600 F 0.412 -0.410 21.4 V 0.70 0.99 d 691 0.70 Yes Yes
2001QM142 O C 2001-08-25.27803 1.000E-05 21:21:10.130 1.500E-01 0.600 F 0.071 0.532 -14° 22' 53.70" 1.000E-01 0.600 F 0.412 -0.109 21.1 V 0.70 0.69 d 691 0.96 Yes Yes
2001QM142 O C H 2001-08-26.28656 1.000E-05 21:17:21.230 1.500E-01 0.600 F 0.026 0.951 -15° 03' 52.80" 1.000E-01 0.600 F 0.463 0.101 21.1 V 0.70 0.69 d 691 1.70 Yes Yes
2001QM142 O C H 2001-08-26.29059 1.000E-05 21:17:20.230 1.500E-01 0.600 F 0.026 0.872 -15° 04' 03.50" 1.000E-01 0.600 F 0.463 -0.618 21.2 V 0.70 0.79 d 691 1.85 Yes Yes
2001QM142 O C t 2001-08-27.18348 1.000E-05 21:13:50.890 1.500E-01 0.600 F 0.079 -0.063 -15° 41' 33.90" 1.000E-01 0.600 F 0.409 1.649 d 691 2.79 Yes No
2001QF96 O C H 2001-08-28.38859 1.000E-05 21:46:56.890 1.500E-01 0.600 F 0.131 0.201 -05° 17' 08.50" 1.000E-01 0.600 F 0.438 0.171 20.4 V 0.70 1.17 d 691 0.46 Yes Yes
2001QF96 O C H 2001-08-28.39276 1.000E-05 21:46:57.800 1.500E-01 0.600 F 0.131 0.586 -05° 17' 22.50" 1.000E-01 0.600 F 0.438 1.173 20.3 V 0.70 1.07 d 691 2.29 Yes Yes
2001QF96 O C H 2001-08-28.39660 1.000E-05 21:46:58.600 1.500E-01 0.600 F 0.131 0.329 -05° 17' 37.20" 1.000E-01 0.600 F 0.438 0.290 20.5 V 0.70 1.27 d 691 0.77 Yes Yes
2001QM163 O C 2001-09-11.48277 1.000E-05 02:27:40.330 1.500E-01 0.600 F -0.310 0.241 -19° 14' 26.80" 1.000E-01 0.600 F 0.228 -0.077 20.4 V 0.70 0.71 d 691 0.46 Yes Yes
2001QM163 O C 2001-09-11.48679 1.000E-05 02:27:39.220 1.500E-01 0.600 F -0.310 0.584 -19° 14' 28.90" 1.000E-01 0.600 F 0.228 0.063 20.5 V 0.70 0.81 d 691 1.07 Yes Yes
2001QM163 O C 2001-09-11.49075 1.000E-05 02:27:38.050 1.500E-01 0.600 F -0.310 -0.167 -19° 14' 31.20" 1.000E-01 0.600 F 0.228 -0.034 20.5 V 0.70 0.81 d 691 0.31 Yes Yes
2001HW7 O C 2001-09-17.10757 1.000E-05 20:06:53.660 1.500E-01 0.600 F 0.002 0.208 -05° 22' 23.70" 1.000E-01 0.600 F 0.362 -0.131 20.7 V 0.70 0.23 d 691 0.43 Yes Yes
2001HW7 O C 2001-09-17.11528 1.000E-05 20:06:55.450 1.500E-01 0.600 F 0.002 -0.335 -05° 22' 31.10" 1.000E-01 0.600 F 0.362 -0.194 20.9 V 0.70 0.43 d 691 0.68 Yes Yes
2001HW7 O C 2001-09-17.12252 1.000E-05 20:06:57.210 1.500E-01 0.600 F 0.002 0.351 -05° 22' 38.00" 1.000E-01 0.600 F 0.362 -0.210 21.3 V 0.70 0.83 d 691 0.71 Yes Yes
2001SK9 O C 2001-09-18.29207 1.000E-05 01:50:42.850 1.500E-01 0.600 F -0.250 -0.219 +16° 21' 04.40" 1.000E-01 0.600 F 0.342 -0.196 21.1 V 0.70 1.38 d 691 0.49 Yes Yes
2001SK9 O C 2001-09-18.29630 1.000E-05 01:50:42.200 1.500E-01 0.600 F -0.250 0.017 +16° 20' 57.30" 1.000E-01 0.600 F 0.342 0.039 20.7 V 0.70 0.98 d 691 0.07 Yes Yes
2001SK9 O C 2001-09-18.30048 1.000E-05 01:50:41.530 1.500E-01 0.600 F -0.250 -0.144 +16° 20' 49.70" 1.000E-01 0.600 F 0.342 -0.311 20.5 V 0.70 0.78 d 691 0.57 Yes Yes
2001SQ3 O C t 2001-09-18.32643 1.000E-05 01:53:25.300 1.500E-01 0.600 F -0.054 -0.519 +22° 05' 42.90" 1.000E-01 0.600 F 0.243 2.043 d 691 3.41 No No
2001SQ3 O C t 2001-09-18.33408 1.000E-05 01:53:14.420 1.500E-01 0.600 F -0.054 -0.055 +22° 07' 36.10" 1.000E-01 0.600 F 0.243 0.212 d 691 0.38 Yes No
2001SQ3 O C t 2001-09-18.34258 1.000E-05 01:53:02.280 1.500E-01 0.600 F 0.024 -0.250 +22° 09' 44.20" 1.000E-01 0.600 F 0.242 0.769 d 691 1.39 Yes No
2001SJ9 O C t 2001-09-18.34872 1.000E-05 02:24:10.010 1.500E-01 0.600 F -0.132 -0.796 +13° 32' 49.90" 1.000E-01 0.600 F 0.502 1.400 19.1 V 0.70 0.32 d 691 2.75 Yes Yes
2001SJ9 O C t 2001-09-18.35274 1.000E-05 02:24:10.620 1.500E-01 0.600 F -0.132 0.044 +13° 32' 34.90" 1.000E-01 0.600 F 0.502 -0.492 19.2 V 0.70 0.42 d 691 0.84 Yes Yes
2001SJ9 O C t 2001-09-18.35741 1.000E-05 02:24:11.250 1.500E-01 0.600 F -0.132 -0.118 +13° 32' 19.70" 1.000E-01 0.600 F 0.502 -0.460 19.2 V 0.70 0.42 d 691 0.81 Yes Yes
2001SO73 O C 2001-09-19.37772 1.000E-05 01:03:49.790 1.500E-01 0.600 F -0.171 -0.576 +08° 18' 01.10" 1.000E-01 0.600 F 0.235 -0.468 21.3 V 0.70 0.38 d 691 1.24 Yes Yes
2001SO73 O C 2001-09-19.41075 1.000E-05 01:03:46.880 1.500E-01 0.600 F -0.171 -0.529 +08° 17' 39.80" 1.000E-01 0.600 F 0.235 -0.235 21.7 V 0.70 0.78 d 691 0.97 Yes Yes
2001SO73 O C 2001-09-19.44680 1.000E-05 01:03:43.720 1.500E-01 0.600 F -0.171 -0.323 +08° 17' 16.30" 1.000E-01 0.600 F 0.235 -0.184 21.4 V 0.70 0.48 d 691 0.62 Yes Yes
2001SK9 O C 2001-09-19.46959 1.000E-05 01:47:40.130 1.500E-01 0.600 F -0.133 -0.269 +15° 46' 42.40" 1.000E-01 0.600 F 0.200 -0.325 20.5 V 0.70 0.80 d 691 0.70 Yes Yes
2001SK9 O C 2001-09-19.47352 1.000E-05 01:47:39.500 1.500E-01 0.600 F -0.133 -0.384 +15° 46' 35.50" 1.000E-01 0.600 F 0.200 -0.285 20.7 V 0.70 1.00 d 691 0.80 Yes Yes
2001SK9 O C 2001-09-19.47808 1.000E-05 01:47:38.780 1.500E-01 0.600 F -0.133 -0.363 +15° 46' 27.60" 1.000E-01 0.600 F 0.200 -0.132 20.9 V 0.70 1.20 d 691 0.64 Yes Yes
2001SO73 O C H 2001-09-20.31356 1.000E-05 01:02:29.530 1.500E-01 0.600 F -0.136 0.337 +08° 07' 49.90" 1.000E-01 0.600 F 0.364 0.139 20.9 V 0.70 0.00 d 691 0.61 Yes Yes
2001SO73 O C H 2001-09-20.33895 1.000E-05 01:02:27.280 1.500E-01 0.600 F -0.136 0.437 +08° 07' 34.40" 1.000E-01 0.600 F 0.364 1.298 21.1 V 0.70 0.20 d 691 2.29 Yes Yes
2001SO73 O C H 2001-09-20.36431 1.000E-05 01:02:25.020 1.500E-01 0.600 F -0.136 0.372 +08° 07' 15.80" 1.000E-01 0.600 F 0.364 -0.636 20.7 V 0.70 -0.20 d 691 1.23 Yes Yes
2001SK9 O C 2001-09-20.45131 1.000E-05 01:45:08.080 1.500E-01 0.600 F 0.026 -0.051 +15° 17' 51.80" 1.000E-01 0.600 F 0.367 -0.371 21.0 V 0.70 1.31 d 691 0.62 Yes Yes
2001SK9 O C 2001-09-20.45578 1.000E-05 01:45:07.430 1.500E-01 0.600 F 0.026 0.804 +15° 17' 44.10" 1.000E-01 0.600 F 0.367 -0.141 20.9 V 0.70 1.21 d 691 1.37 Yes Yes
2001SK9 O C 2001-09-20.45991 1.000E-05 01:45:06.720 1.500E-01 0.600 F 0.026 0.008 +15° 17' 36.50" 1.000E-01 0.600 F 0.367 -0.413 20.7 V 0.70 1.01 d 691 0.69 Yes Yes
2001SJ9 O C H 2001-09-20.47067 1.000E-05 02:29:12.240 1.500E-01 0.600 F -0.055 0.216 +11° 34' 19.10" 1.000E-01 0.600 F 0.336 0.584 20.8 V 0.70 2.09 d 691 1.06 Yes No
2001SJ9 O C H 2001-09-20.48117 1.000E-05 02:29:13.520 1.500E-01 0.600 F -0.055 -1.161 +11° 33' 44.00" 1.000E-01 0.600 F 0.336 1.553 21.2 V 0.70 2.49 d 691 3.16 No No
2001RR17 O C 2001-09-21.23188 1.000E-05 23:32:13.690 1.500E-01 0.600 F -0.133 0.047 -00° 33' 42.50" 1.000E-01 0.600 F 0.521 -0.086 19.9 V 0.70 0.54 d 691 0.16 Yes Yes
2001RR17 O C 2001-09-21.25281 1.000E-05 23:32:11.970 1.500E-01 0.600 F -0.133 0.266 -00° 34' 08.60" 1.000E-01 0.600 F 0.521 -0.262 19.9 V 0.70 0.54 d 691 0.63 Yes Yes
2001RR17 O C 2001-09-21.27395 1.000E-05 23:32:10.200 1.500E-01 0.600 F -0.133 0.018 -00° 34' 34.70" 1.000E-01 0.600 F 0.521 -0.181 19.9 V 0.70 0.54 d 691 0.30 Yes Yes
2001SO73 O C H 2001-09-21.44188 1.000E-05 01:00:51.350 1.500E-01 0.600 F -0.136 -0.427 +07° 55' 25.60" 1.000E-01 0.600 F 0.364 1.308 21.3 V 0.70 0.42 d 691 2.30 Yes Yes
2001SO73 O C H 2001-09-21.44578 1.000E-05 01:00:51.030 1.500E-01 0.600 F -0.136 -0.015 +07° 55' 22.20" 1.000E-01 0.600 F 0.364 0.509 21.3 V 0.70 0.42 d 691 0.85 Yes Yes
1991RJ2 O C 2001-09-21.46134 1.000E-05 04:29:21.160 1.500E-01 0.600 F -0.155 0.105 +11° 56' 03.50" 1.000E-01 0.600 F 0.038 -0.392 22.1 V 0.70 0.98 d 691 0.68 Yes Yes
1991RJ2 O C 2001-09-21.47609 1.000E-05 04:29:21.740 1.500E-01 0.600 F -0.155 -0.102 +11° 55' 56.20" 1.000E-01 0.600 F 0.038 0.413 21.5 V 0.70 0.38 d 691 0.71 Yes Yes
1991RJ2 O C 2001-09-21.49088 1.000E-05 04:29:22.360 1.500E-01 0.600 F -0.155 0.272 +11° 55' 47.90" 1.000E-01 0.600 F 0.038 0.258 21.9 V 0.70 0.78 d 691 0.63 Yes Yes
1999RH33 O C 2001-09-22.30473 1.000E-05 00:40:20.740 1.500E-01 0.600 F -0.385 -0.262 -02° 40' 02.00" 1.000E-01 0.600 F 0.372 0.172 21.1 V 0.70 0.86 d 691 0.52 Yes Yes
1999RH33 O C 2001-09-22.30941 1.000E-05 00:40:20.430 1.500E-01 0.600 F -0.385 0.181 -02° 40' 07.30" 1.000E-01 0.600 F 0.372 0.121 21.0 V 0.70 0.76 d 691 0.37 Yes Yes
1999RH33 O C 2001-09-22.31404 1.000E-05 00:40:20.070 1.500E-01 0.600 F -0.385 -0.178 -02° 40' 13.00" 1.000E-01 0.600 F 0.372 -0.386 21.4 V 0.70 1.16 d 691 0.71 Yes Yes
1991RJ2 O C 2001-09-22.47678 1.000E-05 04:30:04.090 1.500E-01 0.600 F -0.138 -0.012 +11° 46' 39.90" 1.000E-01 0.600 F 0.114 -0.199 21.7 V 0.70 0.59 d 691 0.33 Yes Yes
1991RJ2 O C 2001-09-22.48163 1.000E-05 04:30:04.250 1.500E-01 0.600 F -0.138 -0.314 +11° 46' 37.30" 1.000E-01 0.600 F 0.114 -0.091 22.1 V 0.70 0.99 d 691 0.55 Yes Yes
1991RJ2 O C 2001-09-22.48668 1.000E-05 04:30:04.470 1.500E-01 0.600 F -0.138 0.157 +11° 46' 34.40" 1.000E-01 0.600 F 0.114 -0.170 22.2 V 0.70 1.09 d 691 0.39 Yes Yes
2001SO73 O C I 2001-09-23.44173 1.000E-05 00:57:56.370 1.500E-01 0.600 F -0.221 -0.566 +07° 33' 06.20" 1.000E-01 0.600 F 0.348 0.276 20.4 V 0.70 -0.44 d 691 1.05 Yes Yes
2001SO73 O C 2001-09-23.44637 1.000E-05 00:57:55.990 1.500E-01 0.600 F -0.221 -0.009 +07° 33' 02.30" 1.000E-01 0.600 F 0.348 -0.483 21.4 V 0.70 0.56 d 691 0.81 Yes Yes
2001SO73 O C 2001-09-23.45118 1.000E-05 00:57:55.560 1.500E-01 0.600 F -0.221 0.029 +07° 32' 58.80" 1.000E-01 0.600 F 0.348 -0.727 21.3 V 0.70 0.46 d 691 1.21 Yes Yes
2001SO73 O C 2001-09-24.28249 1.000E-05 00:56:42.800 1.500E-01 0.600 F -0.221 0.088 +07° 23' 37.70" 1.000E-01 0.600 F 0.348 -0.288 21.4 V 0.70 0.57 d 691 0.50 Yes Yes
2001SO73 O C 2001-09-24.29212 1.000E-05 00:56:41.920 1.500E-01 0.600 F -0.221 -0.030 +07° 23' 31.10" 1.000E-01 0.600 F 0.348 -0.382 21.6 V 0.70 0.77 d 691 0.64 Yes Yes
2001SO73 O C 2001-09-24.29820 1.000E-05 00:56:41.400 1.500E-01 0.600 F -0.221 0.429 +07° 23' 27.40" 1.000E-01 0.600 F 0.348 0.028 21.6 V 0.70 0.77 d 691 0.72 Yes Yes
2001SO73 O C 2001-09-25.29388 1.000E-05 00:55:13.530 1.500E-01 0.600 F -0.267 0.166 +07° 12' 10.80" 1.000E-01 0.600 F 0.330 -0.588 21.6 V 0.70 0.79 d 691 1.02 Yes Yes
2001SO73 O C 2001-09-25.29878 1.000E-05 00:55:13.080 1.500E-01 0.600 F -0.267 0.091 +07° 12' 07.90" 1.000E-01 0.600 F 0.330 -0.160 21.7 V 0.70 0.89 d 691 0.31 Yes Yes
2001SO73 O C 2001-09-25.30351 1.000E-05 00:55:12.640 1.500E-01 0.600 F -0.267 -0.064 +07° 12' 04.50" 1.000E-01 0.600 F 0.330 -0.347 21.4 V 0.70 0.59 d 691 0.59 Yes Yes
1999RH33 O C 2001-09-25.30983 1.000E-05 00:36:49.750 1.500E-01 0.600 F -0.199 0.558 -03° 36' 18.70" 1.000E-01 0.600 F 0.449 -0.184 21.3 V 0.70 1.15 d 691 0.99 Yes Yes
1999RH33 O C 2001-09-25.31678 1.000E-05 00:36:49.190 1.500E-01 0.600 F -0.199 0.043 -03° 36' 26.40" 1.000E-01 0.600 F 0.449 -0.072 20.8 V 0.70 0.65 d 691 0.14 Yes Yes
1999RH33 O C 2001-09-25.32107 1.000E-05 00:36:48.860 1.500E-01 0.600 F -0.199 -0.040 -03° 36' 30.70" 1.000E-01 0.600 F 0.449 0.449 20.3 V 0.70 0.15 d 691 0.75 Yes Yes
1991RJ2 O C H 2001-10-09.47181 1.000E-05 04:34:18.320 1.500E-01 0.600 F -0.003 0.701 +08° 54' 02.50" 1.000E-01 0.600 F 0.231 -0.691 21.0 V 0.70 0.09 d 691 1.65 Yes Yes
1991RJ2 O C H 2001-10-09.47613 1.000E-05 04:34:18.310 1.500E-01 0.600 F -0.003 1.511 +08° 53' 59.40" 1.000E-01 0.600 F 0.231 -1.009 20.5 V 0.70 -0.41 d 691 3.04 Yes Yes
1991RJ2 O C H 2001-10-09.47997 1.000E-05 04:34:18.150 1.500E-01 0.600 F -0.003 -0.009 +08° 53' 58.50" 1.000E-01 0.600 F 0.231 0.565 20.7 V 0.70 -0.21 d 691 0.94 Yes Yes
1999JU6 O C H 2001-10-09.48770 1.000E-05 04:50:42.470 1.500E-01 0.600 F 0.037 -0.072 +22° 30' 18.60" 1.000E-01 0.600 F 0.114 -0.137 20.9 V 0.70 -0.40 d 691 0.26 Yes Yes
1999JU6 O C H 2001-10-09.49634 1.000E-05 04:50:42.450 1.500E-01 0.600 F 0.037 0.164 +22° 30' 06.00" 1.000E-01 0.600 F 0.114 -0.088 20.9 V 0.70 -0.40 d 691 0.31 Yes Yes
1999JU6 O C H 2001-10-09.50488 1.000E-05 04:50:42.430 1.500E-01 0.600 F 0.037 0.392 +22° 29' 54.00" 1.000E-01 0.600 F 0.114 0.427 21.7 V 0.70 0.40 d 691 0.97 Yes Yes
2001MQ3 O C 2001-10-11.08575 1.000E-05 22:25:21.220 1.500E-01 0.600 F 0.107 0.220 +09° 10' 52.90" 1.000E-01 0.600 F 0.175 0.289 18.5 V 0.70 0.04 d 691 0.61 Yes Yes
2001MQ3 O C 2001-10-11.10691 1.000E-05 22:25:23.930 1.500E-01 0.600 F 0.107 -0.205 +09° 11' 07.10" 1.000E-01 0.600 F 0.175 0.040 18.6 V 0.70 0.14 d 691 0.35 Yes Yes
2001MQ3 O C 2001-10-11.12920 1.000E-05 22:25:26.800 1.500E-01 0.600 F 0.107 -0.220 +09° 11' 22.20" 1.000E-01 0.600 F 0.175 -0.009 18.7 V 0.70 0.24 d 691 0.37 Yes Yes
2001SO73 O C 2001-10-14.28229 1.000E-05 00:28:43.810 1.500E-01 0.600 F -0.013 0.254 +03° 42' 51.90" 1.000E-01 0.600 F 0.279 -0.148 20.9 V 0.70 -0.16 d 691 0.49 Yes Yes
2001SO73 O C 2001-10-14.30299 1.000E-05 00:28:42.230 1.500E-01 0.600 F -0.013 0.190 +03° 42' 39.30" 1.000E-01 0.600 F 0.279 -0.313 21.2 V 0.70 0.14 d 691 0.61 Yes Yes
2001SO73 O C 2001-10-14.32372 1.000E-05 00:28:40.670 1.500E-01 0.600 F -0.013 0.427 +03° 42' 26.80" 1.000E-01 0.600 F 0.279 -0.359 21.4 V 0.70 0.34 d 691 0.93 Yes Yes
2001SO73 O C 2001-10-15.32779 1.000E-05 00:27:27.380 1.500E-01 0.600 F -0.022 0.372 +03° 32' 29.50" 1.000E-01 0.600 F 0.404 -0.651 20.8 V 0.70 -0.31 c 691 1.25 Yes Yes
2001SO73 O C 2001-10-15.33241 1.000E-05 00:27:27.020 1.500E-01 0.600 F -0.022 0.122 +03° 32' 26.70" 1.000E-01 0.600 F 0.404 -0.724 21.1 V 0.70 -0.01 c 691 1.23 Yes Yes
2001SO73 O C 2001-10-15.33649 1.000E-05 00:27:26.710 1.500E-01 0.600 F -0.022 0.018 +03° 32' 24.80" 1.000E-01 0.600 F 0.404 -0.216 21.0 V 0.70 -0.11 c 691 0.36 Yes Yes
2001MA8 O C 2001-10-16.10483 1.000E-05 22:30:09.720 1.500E-01 0.600 F -0.001 0.441 +05° 25' 13.80" 1.000E-01 0.600 F 0.163 -0.075 20.7 V 0.70 0.46 d 691 0.75 Yes Yes
2001MA8 O C 2001-10-16.13062 1.000E-05 22:30:10.150 1.500E-01 0.600 F -0.001 0.230 +05° 25' 04.50" 1.000E-01 0.600 F 0.163 0.117 20.5 V 0.70 0.26 d 691 0.43 Yes Yes
2001MA8 O C 2001-10-16.17062 1.000E-05 22:30:10.830 1.500E-01 0.600 F -0.001 0.160 +05° 24' 49.60" 1.000E-01 0.600 F 0.163 -0.046 20.8 V 0.70 0.56 d 691 0.28 Yes Yes
2001SO73 O C 2001-10-17.15850 1.000E-05 00:25:18.300 1.500E-01 0.600 F -0.017 -0.003 +03° 14' 50.30" 1.000E-01 0.600 F 0.435 0.249 21.9 V 0.70 0.71 d 691 0.42 Yes Yes
2001RQ17 O C 2001-10-17.16765 1.000E-05 00:38:30.950 1.500E-01 0.600 F -0.171 -0.001 +02° 57' 34.60" 1.000E-01 0.600 F 0.428 0.164 21.5 V 0.70 0.60 d 691 0.27 Yes Yes
2001SO73 O C 2001-10-17.17957 1.000E-05 00:25:16.820 1.500E-01 0.600 F -0.017 0.275 +03° 14' 38.00" 1.000E-01 0.600 F 0.435 -0.096 21.7 V 0.70 0.51 d 691 0.49 Yes Yes
2001RQ17 O C 2001-10-17.18874 1.000E-05 00:38:31.470 1.500E-01 0.600 F -0.171 0.038 +02° 57' 47.70" 1.000E-01 0.600 F 0.428 -0.094 21.1 V 0.70 0.19 d 691 0.17 Yes Yes
2001SO73 O C 2001-10-17.20050 1.000E-05 00:25:15.320 1.500E-01 0.600 F -0.017 0.137 +03° 14' 26.10" 1.000E-01 0.600 F 0.435 -0.121 21.1 V 0.70 -0.09 d 691 0.30 Yes Yes
2001RQ17 O C 2001-10-17.20970 1.000E-05 00:38:31.970 1.500E-01 0.600 F -0.171 0.044 +02° 58' 00.90" 1.000E-01 0.600 F 0.428 -0.138 20.9 V 0.70 -0.01 d 691 0.24 Yes Yes
2001SL9 O C 2001-10-17.22212 1.000E-05 01:22:53.410 1.500E-01 0.600 F -0.044 0.238 +07° 38' 21.30" 1.000E-01 0.600 F 0.398 -0.386 15.9 V 0.70 0.46 d 691 0.76 Yes Yes
2001SL9 O C 2001-10-17.24333 1.000E-05 01:22:50.310 1.500E-01 0.600 F -0.044 -0.442 +07° 36' 39.50" 1.000E-01 0.600 F 0.398 -1.956 15.9 V 0.70 0.46 d 691 3.33 No Yes
2001SL9 O C 2001-10-17.26518 1.000E-05 01:22:47.180 1.500E-01 0.600 F -0.044 -0.033 +07° 34' 56.00" 1.000E-01 0.600 F 0.398 -2.110 15.9 V 0.70 0.46 d 691 3.51 No Yes
Hephaistos O C 2001-10-19.37112 1.000E-05 03:03:23.650 1.500E-01 0.600 F -0.008 -0.014 +21° 33' 03.10" 1.000E-01 0.600 F 0.303 -0.220 18.8 V 0.70 0.23 d 691 0.37 Yes Yes
Hephaistos O C 2001-10-19.39460 1.000E-05 03:03:21.940 1.500E-01 0.600 F -0.008 0.049 +21° 32' 58.50" 1.000E-01 0.600 F 0.303 -0.288 18.8 V 0.70 0.23 d 691 0.49 Yes Yes
Hephaistos O C 2001-10-19.41728 1.000E-05 03:03:20.290 1.500E-01 0.600 F -0.008 0.125 +21° 32' 54.20" 1.000E-01 0.600 F 0.303 -0.185 18.8 V 0.70 0.23 d 691 0.37 Yes Yes
1991AQ O C 2001-10-20.19677 1.000E-05 00:41:02.640 1.500E-01 0.600 F -0.132 0.067 +07° 26' 40.20" 1.000E-01 0.600 F 0.349 -0.092 22.0 V 0.70 0.70 d 691 0.19 Yes Yes
1991AQ O C 2001-10-20.23212 1.000E-05 00:41:00.130 1.500E-01 0.600 F -0.132 -0.001 +07° 26' 24.70" 1.000E-01 0.600 F 0.349 0.122 22.0 V 0.70 0.70 d 691 0.20 Yes Yes
1991AQ O C 2001-10-20.25493 1.000E-05 00:40:58.500 1.500E-01 0.600 F -0.132 -0.194 +07° 26' 14.30" 1.000E-01 0.600 F 0.349 -0.129 21.7 V 0.70 0.40 d 691 0.39 Yes Yes
2001SR263 O C 2001-10-21.22569 1.000E-05 00:54:33.590 1.500E-01 0.600 F -0.045 0.260 +11° 48' 25.00" 1.000E-01 0.600 F 0.298 -0.196 19.9 V 0.70 0.21 d 691 0.56 Yes Yes
2001SR263 O C 2001-10-21.24678 1.000E-05 00:54:33.850 1.500E-01 0.600 F -0.045 0.368 +11° 48' 08.20" 1.000E-01 0.600 F 0.298 -0.124 20.0 V 0.70 0.31 d 691 0.67 Yes Yes
2001SR263 O C 2001-10-21.26794 1.000E-05 00:54:34.100 1.500E-01 0.600 F -0.045 0.345 +11° 47' 50.80" 1.000E-01 0.600 F 0.298 -0.541 20.6 V 0.70 0.91 d 691 1.09 Yes Yes
2001SJ262 O C 2001-10-23.23409 1.000E-05 01:05:33.340 1.500E-01 0.600 F -0.175 -0.045 +09° 57' 30.20" 1.000E-01 0.600 F 0.295 -0.245 18.7 V 0.70 0.60 d 691 0.42 Yes Yes
2001SJ262 O C 2001-10-23.25621 1.000E-05 01:05:36.130 1.500E-01 0.600 F -0.175 0.029 +09° 56' 49.20" 1.000E-01 0.600 F 0.295 -0.335 18.6 V 0.70 0.50 d 691 0.57 Yes Yes
2001SJ262 O C 2001-10-23.27814 1.000E-05 01:05:38.890 1.500E-01 0.600 F -0.175 0.051 +09° 56' 08.60" 1.000E-01 0.600 F 0.295 -0.307 18.7 V 0.70 0.60 d 691 0.52 Yes Yes
2001US16 O C 2001-10-23.42637 1.000E-05 02:25:45.810 1.500E-01 0.600 F -0.117 -1.277 +11° 24' 44.80" 1.000E-01 0.600 F 0.156 -0.329 22.0 V 0.70 1.30 d 691 2.20 Yes Yes
2001US16 O C 2001-10-23.44825 1.000E-05 02:25:43.390 1.500E-01 0.600 F -0.117 0.279 +11° 24' 30.50" 1.000E-01 0.600 F 0.156 0.168 21.1 V 0.70 0.41 d 691 0.54 Yes Yes
2001US16 O C 2001-10-23.47007 1.000E-05 02:25:40.890 1.500E-01 0.600 F -0.117 0.402 +11° 24' 15.70" 1.000E-01 0.600 F 0.156 0.155 21.1 V 0.70 0.41 d 691 0.72 Yes Yes
2001UU16 O C t 2001-10-24.30714 1.000E-05 02:22:39.730 1.500E-01 0.900 F 0.012 -0.004 +11° 03' 19.20" 1.000E-01 0.900 F 0.315 -0.808 d 691 0.97 Yes No
2001US16 O C 2001-10-24.30807 1.000E-05 02:24:07.890 1.500E-01 0.600 F 0.012 -0.317 +11° 14' 57.50" 1.000E-01 0.600 F 0.315 -0.452 20.9 V 0.70 0.24 d 691 0.92 Yes Yes
2001UU16 O C t 2001-10-24.31178 1.000E-05 02:22:40.780 1.500E-01 0.900 F 0.012 -0.276 +11° 05' 46.30" 1.000E-01 0.900 F 0.315 -0.779 18 V 1.00 -0.06 d 691 0.99 Yes Yes
2001US16 O C 2001-10-24.31269 1.000E-05 02:24:07.360 1.500E-01 0.600 F 0.012 -0.173 +11° 14' 54.30" 1.000E-01 0.600 F 0.315 -0.576 20.7 V 0.70 0.04 d 691 1.00 Yes Yes
2001UU16 O C t 2001-10-24.31629 1.000E-05 02:22:41.840 1.500E-01 0.900 F 0.012 0.036 +11° 08' 11.20" 1.000E-01 0.900 F 0.315 1.137 d 691 1.36 Yes No
2001US16 O C 2001-10-24.31719 1.000E-05 02:24:06.840 1.500E-01 0.600 F 0.012 -0.089 +11° 14' 51.40" 1.000E-01 0.600 F 0.315 -0.478 21.1 V 0.70 0.44 d 691 0.81 Yes Yes
2001UU16 O C t 2001-10-24.38681 1.000E-05 02:22:58.410 1.500E-01 0.900 F -0.109 0.503 +11° 45' 28.70" 1.000E-01 0.900 F 0.239 -1.061 d 691 1.38 Yes No
2001UU16 O C t 2001-10-24.39085 1.000E-05 02:22:59.300 1.500E-01 0.900 F -0.109 -0.821 +11° 47' 37.40" 1.000E-01 0.900 F 0.239 -0.891 d 691 1.42 Yes No
2001UU16 O C t 2001-10-24.39558 1.000E-05 02:23:00.430 1.500E-01 0.900 F -0.109 -1.174 +11° 50' 09.20" 1.000E-01 0.900 F 0.239 0.397 d 691 1.44 Yes No
2001UU16 O C t 2001-10-24.47942 1.000E-05 02:23:22.480 1.500E-01 0.900 F -0.109 -0.199 +12° 34' 41.80" 1.000E-01 0.900 F 0.239 -0.256 d 691 0.38 Yes No
2001UU16 O C t 2001-10-24.48341 1.000E-05 02:23:23.650 1.500E-01 0.900 F -0.109 0.326 +12° 36' 51.30" 1.000E-01 0.900 F 0.239 1.747 d 691 2.07 Yes No
2001UU16 O C t 2001-10-24.48831 1.000E-05 02:23:25.070 1.500E-01 0.900 F -0.133 0.564 +12° 39' 28.50" 1.000E-01 0.900 F 0.503 2.070 d 691 2.50 Yes No
2001UU16 O C t 2001-10-25.18098 1.000E-05 02:27:58.700 1.500E-01 0.735 F -0.167 -0.512 +19° 03' 09.20" 1.000E-01 0.735 F 0.464 1.069 d 691 1.71 Yes No
2001UU16 O C t 2001-10-25.18583 1.000E-05 02:28:00.330 1.500E-01 0.735 F -0.133 1.142 +19° 05' 53.60" 1.000E-01 0.735 F 0.478 -1.612 d 691 2.86 Yes No
2001UU16 O C t 2001-10-25.18994 1.000E-05 02:28:01.470 1.500E-01 0.735 F -0.133 -0.735 +19° 08' 16.00" 1.000E-01 0.735 F 0.478 -0.796 d 691 1.56 Yes No
2001TB45 O C 2001-10-25.35351 1.000E-05 00:46:28.600 1.500E-01 0.600 F -0.151 -0.005 +03° 07' 02.90" 1.000E-01 0.600 F 0.010 0.044 18.8 V 0.70 0.77 d 691 0.07 Yes Yes
2001TB45 O C 2001-10-25.37479 1.000E-05 00:46:25.200 1.500E-01 0.600 F -0.151 -0.166 +03° 08' 08.10" 1.000E-01 0.600 F 0.010 0.185 19.4 V 0.70 1.37 d 691 0.42 Yes Yes
2001TB45 O C 2001-10-25.39618 1.000E-05 00:46:21.830 1.500E-01 0.600 F -0.151 0.149 +03° 09' 13.50" 1.000E-01 0.600 F 0.010 0.183 19.2 V 0.70 1.17 d 691 0.40 Yes Yes
2001UU16 O C t 2001-10-25.41970 1.000E-05 02:29:08.370 1.500E-01 0.735 F -0.064 -0.423 +21° 19' 52.00" 1.000E-01 0.735 F 0.397 0.032 d 691 0.61 Yes No
2001UU16 O C t 2001-10-25.42459 1.000E-05 02:29:09.880 1.500E-01 0.735 F -0.140 -0.366 +21° 22' 39.90" 1.000E-01 0.735 F 0.409 0.663 d 691 1.08 Yes No
2001UU16 O C t 2001-10-25.42871 1.000E-05 02:29:11.210 1.500E-01 0.735 F -0.211 0.375 +21° 25' 00.20" 1.000E-01 0.735 F 0.431 0.046 d 691 0.55 Yes No
2001TP103 O C 2001-10-26.22434 1.000E-05 01:21:57.440 1.500E-01 0.600 F -0.107 0.295 +12° 38' 27.00" 1.000E-01 0.600 F 0.411 -0.113 19.9 V 0.70 0.24 d 691 0.53 Yes Yes
2001TP103 O C 2001-10-26.24647 1.000E-05 01:21:55.770 1.500E-01 0.600 F -0.107 0.302 +12° 38' 06.80" 1.000E-01 0.600 F 0.411 -0.132 19.9 V 0.70 0.24 d 691 0.56 Yes Yes
2001TP103 O C 2001-10-26.26845 1.000E-05 01:21:54.100 1.500E-01 0.600 F -0.107 0.189 +12° 37' 46.60" 1.000E-01 0.600 F 0.411 -0.214 19.7 V 0.70 0.03 d 691 0.48 Yes Yes
2001UD18 O C t 2001-10-26.30995 1.000E-05 02:09:15.470 1.500E-01 0.735 F -0.099 -0.164 +09° 03' 50.70" 1.000E-01 0.735 F 0.377 1.084 18.5 V 0.70 0.00 d 691 1.88 Yes Yes
2001UD18 O C t 2001-10-26.33401 1.000E-05 02:10:38.280 1.500E-01 0.735 F -0.099 0.094 +09° 04' 50.70" 1.000E-01 0.735 F 0.377 -0.593 d 691 1.00 Yes No
2001UD18 O C t 2001-10-26.35645 1.000E-05 02:11:55.600 1.500E-01 0.735 F -0.211 0.067 +09° 05' 45.40" 1.000E-01 0.735 F 0.410 -0.518 d 691 0.87 Yes No
2001UU16 O C t 2001-10-26.43162 1.000E-05 02:36:25.230 1.500E-01 0.600 F 0.000 -1.859 +31° 09' 54.10" 1.000E-01 0.600 F 0.263 -3.234 d 691 5.60 No No
2001UU16 O C t 2001-10-26.43688 1.000E-05 02:36:27.430 1.500E-01 0.600 F 0.000 0.309 +31° 13' 02.20" 1.000E-01 0.600 F 0.263 2.953 d 691 4.48 No No
2001UU16 O C t 2001-10-26.44135 1.000E-05 02:36:29.150 1.500E-01 0.600 F 0.000 0.076 +31° 15' 34.90" 1.000E-01 0.600 F 0.263 1.160 d 691 2.19 Yes No
2001UD18 O C t 2001-10-26.45624 1.000E-05 02:17:42.200 1.500E-01 0.735 F -0.089 -11.965 +09° 09' 16.10" 1.000E-01 0.735 F 0.437 -0.262 d 691 4.81 No No
2001UD18 O C t 2001-10-26.46126 1.000E-05 02:18:00.130 1.500E-01 0.735 F -0.089 -8.575 +09° 09' 27.80" 1.000E-01 0.735 F 0.437 2.128 d 691 4.63 No No
2001UD18 O C t 2001-10-26.46613 1.000E-05 02:18:17.480 1.500E-01 0.735 F -0.089 -6.315 +09° 09' 36.20" 1.000E-01 0.735 F 0.437 1.601 d 691 3.40 No No
2001UQ163 O C 2001-10-26.48360 1.000E-05 03:31:51.110 1.500E-01 0.600 F -0.217 -0.529 +14° 00' 09.10" 1.000E-01 0.600 F 0.248 -0.775 21.7 V 0.70 0.18 d 691 1.61 Yes Yes
2001UQ163 O C 2001-10-26.49881 1.000E-05 03:31:49.490 1.500E-01 0.600 F -0.217 -0.093 +14° 00' 12.60" 1.000E-01 0.600 F 0.248 -0.939 21.9 V 0.70 0.38 d 691 1.60 Yes Yes
2001UQ163 O C 2001-10-26.51399 1.000E-05 03:31:47.840 1.500E-01 0.600 F -0.217 -0.230 +14° 00' 16.70" 1.000E-01 0.600 F 0.248 -0.477 22.0 V 0.70 0.48 d 691 0.90 Yes Yes
2001US16 O C 2001-10-27.21692 1.000E-05 02:18:43.530 1.500E-01 0.735 F -0.180 0.662 +10° 42' 46.00" 1.000E-01 0.735 F 0.509 -0.203 21.9 V 0.70 1.35 d 691 0.94 Yes Yes
2001US16 O C 2001-10-27.22152 1.000E-05 02:18:42.980 1.500E-01 0.735 F -0.180 0.383 +10° 42' 42.80" 1.000E-01 0.735 F 0.509 -0.401 21.5 V 0.70 0.95 d 691 0.75 Yes Yes
2001US16 O C 2001-10-27.22556 1.000E-05 02:18:42.520 1.500E-01 0.735 F -0.180 0.481 +10° 42' 40.80" 1.000E-01 0.735 F 0.509 0.237 21.0 V 0.70 0.45 d 691 0.73 Yes Yes
2001UD18 O C t 2001-10-27.24770 1.000E-05 03:05:38.550 1.500E-01 0.849 F -0.281 1.127 +09° 27' 47.30" 1.000E-01 0.849 F 0.096 0.088 d 691 2.01 Yes No
2001UD18 O C t 2001-10-27.25205 1.000E-05 03:05:52.270 1.500E-01 0.849 F -0.281 -3.764 +09° 27' 51.00" 1.000E-01 0.849 F 0.096 0.443 d 691 3.61 No No
2001UD18 O C t 2001-10-27.30931 1.000E-05 03:08:55.080 1.500E-01 0.849 F -0.102 -8.440 +09° 28' 26.40" 1.000E-01 0.849 F 0.258 0.757 d 691 8.81 No No
2001UD18 O C t 2001-10-27.31853 1.000E-05 03:09:24.730 1.500E-01 0.849 F -0.102 -2.089 +09° 28' 29.60" 1.000E-01 0.849 F 0.258 -0.040 d 691 2.87 Yes No
2001UD18 O C t 2001-10-27.32695 1.000E-05 03:09:51.540 1.500E-01 0.849 F -0.102 0.486 +09° 28' 32.70" 1.000E-01 0.849 F 0.258 -0.188 d 691 0.70 Yes No
2001UQ163 O C 2001-10-27.40117 1.000E-05 03:30:15.180 1.500E-01 0.735 F 0.018 -0.541 +14° 04' 01.60" 1.000E-01 0.735 F 0.201 -0.627 21.9 V 0.70 0.39 d 691 1.15 Yes Yes
2001UQ163 O C 2001-10-27.40514 1.000E-05 03:30:14.760 1.500E-01 0.735 F 0.018 -0.266 +14° 04' 02.60" 1.000E-01 0.735 F 0.201 -0.595 22.2 V 0.70 0.69 d 691 0.90 Yes Yes
2001UQ163 O C 2001-10-27.40985 1.000E-05 03:30:14.240 1.500E-01 0.735 F 0.018 -0.259 +14° 04' 03.40" 1.000E-01 0.735 F 0.201 -0.941 21.7 V 0.70 0.19 d 691 1.35 Yes Yes
2001US16 O C 2001-10-27.42400 1.000E-05 02:18:19.540 1.500E-01 0.735 F -0.180 0.429 +10° 40' 29.30" 1.000E-01 0.735 F 0.509 -0.120 21.0 V 0.70 0.45 d 691 0.61 Yes Yes
2001US16 O C 2001-10-27.42876 1.000E-05 02:18:19.000 1.500E-01 0.735 F -0.180 0.520 +10° 40' 26.20" 1.000E-01 0.735 F 0.509 -0.039 21.1 V 0.70 0.55 d 691 0.71 Yes Yes
2001US16 O C 2001-10-27.43289 1.000E-05 02:18:18.510 1.500E-01 0.735 F -0.180 0.275 +10° 40' 23.40" 1.000E-01 0.735 F 0.509 -0.078 21.8 V 0.70 1.25 d 691 0.39 Yes Yes
2001UD18 O C t 2001-10-27.45671 1.000E-05 03:16:39.550 1.500E-01 0.849 F 0.084 -0.009 +09° 28' 35.60" 1.000E-01 0.849 F 0.330 -0.134 d 691 0.18 Yes No
2001UD18 O C t 2001-10-27.46075 1.000E-05 03:16:52.310 1.500E-01 0.849 F 0.084 0.490 +09° 28' 34.80" 1.000E-01 0.849 F 0.330 0.311 d 691 0.91 Yes No
2001UD18 O C t 2001-10-27.46566 1.000E-05 03:17:07.350 1.500E-01 0.849 F 0.084 -5.955 +09° 28' 33.40" 1.000E-01 0.849 F 0.330 0.521 d 691 5.73 No No
2001UQ163 O C H 2001-10-27.47318 1.000E-05 03:30:07.290 1.500E-01 0.735 F 0.018 -0.016 +14° 04' 19.70" 1.000E-01 0.735 F 0.201 0.205 21.6 V 0.70 0.09 d 691 0.28 Yes Yes
2001UQ163 O C H 2001-10-27.47711 1.000E-05 03:30:06.830 1.500E-01 0.735 F 0.018 -0.457 +14° 04' 21.40" 1.000E-01 0.735 F 0.201 0.978 21.5 V 0.70 -0.01 d 691 1.48 Yes Yes
2001UQ163 O C H 2001-10-27.48176 1.000E-05 03:30:06.360 1.500E-01 0.735 F 0.018 0.096 +14° 04' 22.80" 1.000E-01 0.735 F 0.201 1.285 21.0 V 0.70 -0.51 d 691 1.77 Yes Yes
2001UD5 O C 2001-11-11.27407 1.000E-05 02:12:28.750 1.500E-01 0.600 F -0.015 0.114 +17° 36' 48.00" 1.000E-01 0.600 F 0.212 0.375 22.7 V 0.70 1.13 d 691 0.79 Yes Yes
2001UD5 O C 2001-11-11.27886 1.000E-05 02:12:28.450 1.500E-01 0.600 F -0.015 -0.200 +17° 36' 45.90" 1.000E-01 0.600 F 0.212 -0.327 22.4 V 0.70 0.83 d 691 0.78 Yes Yes
2001UD5 O C 2001-11-11.28361 1.000E-05 02:12:28.190 1.500E-01 0.600 F -0.015 0.021 +17° 36' 44.70" 1.000E-01 0.600 F 0.212 -0.136 22.2 V 0.70 0.63 d 691 0.28 Yes Yes
2001VF75 O C 2001-11-11.31462 1.000E-05 03:11:53.420 1.500E-01 0.735 F -0.020 -0.795 +20° 03' 57.20" 1.000E-01 0.735 F 0.353 0.388 19.6 V 0.70 0.31 d 691 1.34 Yes Yes
2001VF75 O C 2001-11-11.33760 1.000E-05 03:11:49.200 1.500E-01 0.735 F -0.020 -0.055 +20° 05' 35.90" 1.000E-01 0.735 F 0.353 -1.014 19.5 V 0.70 0.22 d 691 1.51 Yes Yes
2001VF75 O C 2001-11-11.36175 1.000E-05 03:11:44.740 1.500E-01 0.735 F -0.020 0.332 +20° 07' 20.80" 1.000E-01 0.735 F 0.353 -1.219 19.4 V 0.70 0.12 d 691 1.88 Yes Yes
2001VF75 O C t 2001-11-11.45985 1.000E-05 03:11:26.640 1.500E-01 0.735 F -0.020 -0.264 +20° 14' 28.60" 1.000E-01 0.735 F 0.353 0.327 19.1 V 0.70 -0.18 d 691 0.62 Yes Yes

[1-200] [201-400] [401-600] [601-800] [801-1000] [1001-1200] [1201-1400] [1401-1600] [1601-1800] [1801-2000] [2001-2200] [2201-2400] [2401-2600] [2601-2800] [2801-3000] [3001-3200] [3201-3400] [3401-3600] [3601-3800] [3801-4000] [4001-4200] [4201-4400] [4401-4600] [4601-4800] [4801-5000] [5001-5200] [5201-5400] [5401-5600] [5601-5800] [5801-6000] [6001-6200] [6201-6400] [6401-6600] [6601-6800] [6801-7000] [7001-7200] [7201-7400] [7401-7600] [7601-7800] [7801-8000] [8001-8200] [8201-8400] [8401-8600] [8601-8800] [8801-9000] [9001-9200] [9201-9400] [9401-9600] [9601-9800] [9801-10000] [10001-10200] [10201-10400] [10401-10600] [10601-10800] [10801-11000] [11001-11200] [11201-11400] [11401-11600] [11601-11800] [11801-12000] [12001-12200] [12201-12400] [12401-12600] [12601-12800] [12801-13000] [13001-13200] [13201-13400] [13401-13600] [13601-13800] [13801-14000] [14001-14200] [14201-14400] [14401-14600] [14601-14800] [14801-15000] [15001-15200] [15201-15400] [15401-15600] [15601-15800] [15801-16000] [16001-16200] [16201-16400] [16401-16600] [16601-16800] [16801-17000] [17001-17200] [17201-17400] [17401-17600] [17601-17800] [17801-18000] [18001-18200] [18201-18400] [18401-18600] [18601-18800] [18801-19000] [19001-19200] [19201-19400] [19401-19600] [19601-19800] [19801-20000] [20001-20200] [20201-20400] [20401-20600] [20601-20800] [20801-21000] [21001-21200] [21201-21400] [21401-21600] [21601-21800] [21801-22000] [22001-22200] [22201-22400] [22401-22600] [22601-22800] [22801-23000] [23001-23200] [23201-23400] [23401-23600] [23601-23800] [23801-24000] [24001-24200] [24201-24400] [24401-24600] [24601-24800] [24801-25000] [25001-25200] [25201-25400] [25401-25600] [25601-25800] [25801-26000] [26001-26200] [26201-26400] [26401-26600] [26601-26800] [26801-27000] [27001-27200] [27201-27400] [27401-27600] [27601-27800] [27801-28000] [28001-28200] [28201-28400] [28401-28600] [28601-28800] [28801-29000] [29001-29200] [29201-29400] [29401-29600] [29601-29800] [29801-30000] [30001-30200] [30201-30400] [30401-30600] [30601-30800] [30801-31000] [31001-31200] [31201-31400] [31401-31600] [31601-31800] [31801-32000] [32001-32200] [32201-32400] [32401-32600] [32601-32800] [32801-33000] [33001-33200] [33201-33400] [33401-33600] [33601-33800] [33801-34000] [34001-34200] [34201-34400] [34401-34600] [34601-34800] [34801-35000] [35001-35200] [35201-35400] [35401-35600] [35601-35800] [35801-36000] [36001-36200] [36201-36400] [36401-36600] [36601-36800] [36801-37000] [37001-37200] [37201-37400] [37401-37600] [37601-37800] [37801-38000] [38001-38200] [38201-38400] [38401-38600] [38601-38800] [38801-39000] [39001-39200] [39201-39400] [39401-39600] [39601-39800] [39801-40000] [40001-40200] [40201-40400] [40401-40600] [40601-40800] [40801-41000] [41001-41200] [41201-41400] [41401-41600] [41601-41800] [41801-42000] [42001-42200] [42201-42400] [42401-42600] [42601-42800] [42801-43000] [43001-43200] [43201-43400] [43401-43600] [43601-43800] [43801-44000] [44001-44200] [44201-44400] [44401-44600] [44601-44800] [44801-45000] [45001-45200] [45201-45400] [45401-45600] [45601-45800] [45801-46000] [46001-46200] [46201-46400] [46401-46600] [46601-46800] [46801-47000] [47001-47200] [47201-47400] [47401-47600] [47601-47800] [47801-48000] [48001-48200] [48201-48400] [48401-48600] [48601-48800] [48801-49000] [49001-49200] [49201-49400] [49401-49600] [49601-49800] [49801-50000] [50001-50200] [50201-50400] [50401-50600] [50601-50741]